createdAt,value
2019-05-28T00:00:02.798Z,6.10
2019-05-28T00:02:32.043Z,5.63
2019-05-28T00:05:01.264Z,5.93
2019-05-28T00:07:30.732Z,5.57
2019-05-28T00:09:59.949Z,6.67
2019-05-28T00:12:30.988Z,4.93
2019-05-28T00:15:00.736Z,4.93
2019-05-28T00:17:31.276Z,5.17
2019-05-28T00:20:00.509Z,5.30
2019-05-28T00:22:29.916Z,4.60
2019-05-28T00:24:59.439Z,4.70
2019-05-28T00:27:29.385Z,5.30
2019-05-28T00:29:58.916Z,4.80
2019-05-28T00:32:28.141Z,5.20
2019-05-28T00:34:57.347Z,5.77
2019-05-28T00:37:26.595Z,4.40
2019-05-28T00:39:56.070Z,5.23
2019-05-28T00:42:25.261Z,5.47
2019-05-28T00:44:54.470Z,5.00
2019-05-28T00:47:23.732Z,4.45
2019-05-28T00:49:53.004Z,5.57
2019-05-28T00:52:22.212Z,4.90
2019-05-28T00:54:51.425Z,4.97
2019-05-28T00:57:21.084Z,4.73
2019-05-28T00:59:50.991Z,4.33
2019-05-28T01:02:20.235Z,5.47
2019-05-28T01:04:49.483Z,6.20
2019-05-28T01:07:19.291Z,5.67
2019-05-28T01:09:48.503Z,5.00
2019-05-28T01:12:18.018Z,5.40
2019-05-28T01:14:47.676Z,6.70
2019-05-28T01:17:17.015Z,6.95
2019-05-28T01:19:46.581Z,6.23
2019-05-28T01:22:15.946Z,6.47
2019-05-28T01:24:45.233Z,6.80
2019-05-28T01:27:14.750Z,6.40
2019-05-28T01:29:45.527Z,7.17
2019-05-28T01:32:14.872Z,5.80
2019-05-28T01:34:44.697Z,6.07
2019-05-28T01:37:14.414Z,6.70
2019-05-28T01:39:43.958Z,6.00
2019-05-28T01:42:13.162Z,7.00
2019-05-28T01:44:42.421Z,6.37
2019-05-28T01:47:11.641Z,5.85
2019-05-28T01:49:40.863Z,6.83
2019-05-28T01:52:10.444Z,6.20
2019-05-28T01:54:40.069Z,6.30
2019-05-28T01:57:09.535Z,7.03
2019-05-28T01:59:38.748Z,6.37
2019-05-28T02:02:08.349Z,6.20
2019-05-28T02:04:37.631Z,6.40
2019-05-28T02:07:06.861Z,6.27
2019-05-28T02:09:36.072Z,6.70
2019-05-28T02:12:05.301Z,5.80
2019-05-28T02:14:34.865Z,6.83
2019-05-28T02:17:04.090Z,7.17
2019-05-28T02:19:33.381Z,8.03
2019-05-28T02:22:03.316Z,7.10
2019-05-28T02:24:32.931Z,9.10
2019-05-28T02:27:02.375Z,8.60
2019-05-28T02:29:31.610Z,8.60
2019-05-28T02:32:00.978Z,8.77
2019-05-28T02:34:30.201Z,10.17
2019-05-28T02:37:00.119Z,9.53
2019-05-28T02:39:29.376Z,8.33
2019-05-28T02:41:58.908Z,9.87
2019-05-28T02:44:28.702Z,9.70
2019-05-28T02:46:58.244Z,9.87
2019-05-28T02:49:27.457Z,9.30
2019-05-28T02:51:56.732Z,9.90
2019-05-28T02:54:26.700Z,9.43
2019-05-28T02:56:56.680Z,9.00
2019-05-28T02:59:26.562Z,8.70
2019-05-28T03:01:57.514Z,9.27
2019-05-28T03:04:28.762Z,8.93
2019-05-28T03:06:59.812Z,8.30
2019-05-28T03:09:30.752Z,8.10
2019-05-28T03:12:00.361Z,9.43
2019-05-28T03:14:29.599Z,8.60
2019-05-28T03:17:01.240Z,10.07
2019-05-28T03:19:31.269Z,10.80
2019-05-28T03:22:02.089Z,10.03
2019-05-28T03:24:32.274Z,8.90
2019-05-28T03:27:02.771Z,10.00
2019-05-28T03:29:31.985Z,10.20
2019-05-28T03:32:09.791Z,10.03
2019-05-28T03:34:32.541Z,9.43
2019-05-28T03:37:02.649Z,11.47
2019-05-28T03:39:32.147Z,9.83
2019-05-28T03:42:01.392Z,10.57
2019-05-28T03:44:31.008Z,11.60
2019-05-28T03:47:00.594Z,11.93
2019-05-28T03:49:29.802Z,10.27
2019-05-28T03:51:59.316Z,10.30
2019-05-28T03:54:29.244Z,11.77
2019-05-28T03:56:58.523Z,11.40
2019-05-28T03:59:27.759Z,10.60
2019-05-28T04:01:57.482Z,10.07
2019-05-28T04:04:27.725Z,10.43
2019-05-28T04:06:57.297Z,10.00
2019-05-28T04:09:27.302Z,10.07
2019-05-28T04:11:57.559Z,9.67
2019-05-28T04:14:26.844Z,10.70
2019-05-28T04:16:56.089Z,9.03
2019-05-28T04:19:25.298Z,9.00
2019-05-28T04:21:54.900Z,7.97
2019-05-28T04:24:24.096Z,9.20
2019-05-28T04:26:53.529Z,10.00
2019-05-28T04:29:24.584Z,7.73
2019-05-28T04:31:54.236Z,9.10
2019-05-28T04:34:24.596Z,8.37
2019-05-28T04:36:54.214Z,8.53
2019-05-28T04:39:23.477Z,6.23
2019-05-28T04:41:53.275Z,8.83
2019-05-28T04:44:22.524Z,7.77
2019-05-28T04:46:51.952Z,6.73
2019-05-28T04:49:21.198Z,8.00
2019-05-28T04:51:50.407Z,6.30
2019-05-28T04:54:19.671Z,6.07
2019-05-28T04:56:49.463Z,7.03
2019-05-28T04:59:19.016Z,6.17
2019-05-28T05:01:48.314Z,6.90
2019-05-28T05:04:17.829Z,7.43
2019-05-28T05:06:47.474Z,5.50
2019-05-28T05:09:16.879Z,5.23
2019-05-28T05:11:46.435Z,6.23
2019-05-28T05:14:15.661Z,5.50
2019-05-28T05:16:44.905Z,5.40
2019-05-28T05:19:14.150Z,5.10
2019-05-28T05:21:43.404Z,5.30
2019-05-28T05:24:13.312Z,4.20
2019-05-28T05:26:42.827Z,4.43
2019-05-28T05:29:12.151Z,3.33
2019-05-28T05:31:41.345Z,2.90
2019-05-28T05:34:11.098Z,4.33
2019-05-28T05:36:40.354Z,2.67
2019-05-28T05:39:09.794Z,3.67
2019-05-28T05:41:40.092Z,2.77
2019-05-28T05:44:09.609Z,3.60
2019-05-28T05:46:39.182Z,3.13
2019-05-28T05:49:08.495Z,3.47
2019-05-28T05:51:38.125Z,3.23
2019-05-28T05:54:07.370Z,3.27
2019-05-28T05:56:36.644Z,3.67
2019-05-28T05:59:05.843Z,2.50
2019-05-28T06:01:35.103Z,3.30
2019-05-28T06:04:04.814Z,2.50
2019-05-28T06:06:34.142Z,2.77
2019-05-28T06:09:03.640Z,2.77
2019-05-28T06:11:33.152Z,2.57
2019-05-28T06:14:02.445Z,3.30
2019-05-28T06:16:31.647Z,3.33
2019-05-28T06:19:01.316Z,3.33
2019-05-28T06:21:30.835Z,2.45
2019-05-28T06:24:00.087Z,2.90
2019-05-28T06:26:29.373Z,4.50
2019-05-28T06:29:00.452Z,4.30
2019-05-28T06:31:29.993Z,3.00
2019-05-28T06:33:59.497Z,3.17
2019-05-28T06:36:29.515Z,2.77
2019-05-28T06:39:00.205Z,4.43
2019-05-28T06:41:29.808Z,3.37
2019-05-28T06:43:59.361Z,3.40
2019-05-28T06:46:28.939Z,2.90
2019-05-28T06:48:59.907Z,2.97
2019-05-28T06:51:29.719Z,3.80
2019-05-28T06:53:59.447Z,3.70
2019-05-28T06:56:29.350Z,2.70
2019-05-28T06:58:58.734Z,3.07
2019-05-28T07:01:28.789Z,3.23
2019-05-28T07:04:12.756Z,2.77
2019-05-28T07:06:29.945Z,3.00
2019-05-28T07:08:59.205Z,3.27
2019-05-28T07:11:28.477Z,2.87
2019-05-28T07:13:58.436Z,3.83
2019-05-28T07:16:27.641Z,4.87
2019-05-28T07:18:56.906Z,6.40
2019-05-28T07:21:26.886Z,5.80
2019-05-28T07:23:56.123Z,6.37
2019-05-28T07:26:25.426Z,6.27
2019-05-28T07:28:54.624Z,6.53
2019-05-28T07:31:23.901Z,6.40
2019-05-28T07:33:53.431Z,6.40
2019-05-28T07:36:22.867Z,6.87
2019-05-28T07:38:52.372Z,8.17
2019-05-28T07:41:21.897Z,5.67
2019-05-28T07:43:51.819Z,6.63
2019-05-28T07:46:21.085Z,8.00
2019-05-28T07:48:50.324Z,8.60
2019-05-28T07:51:19.542Z,8.00
2019-05-28T07:53:48.784Z,8.10
2019-05-28T07:56:17.990Z,8.30
2019-05-28T07:58:49.400Z,9.20
2019-05-28T08:01:19.052Z,8.60
2019-05-28T08:03:48.796Z,8.93
2019-05-28T08:06:18.061Z,9.10
2019-05-28T08:08:47.856Z,8.37
2019-05-28T08:11:17.659Z,8.13
2019-05-28T08:13:46.908Z,8.13
2019-05-28T08:16:18.545Z,8.27
2019-05-28T08:18:47.212Z,9.40
2019-05-28T08:21:16.444Z,10.20
2019-05-28T08:23:45.667Z,9.40
2019-05-28T08:26:14.937Z,8.43
2019-05-28T08:28:44.139Z,9.00
2019-05-28T08:31:17.384Z,9.77
2019-05-28T08:33:44.392Z,9.73
2019-05-28T08:36:13.920Z,9.78
2019-05-28T08:38:43.171Z,9.63
2019-05-28T08:41:12.464Z,8.80
2019-05-28T08:43:42.018Z,8.53
2019-05-28T08:46:11.255Z,9.10
2019-05-28T08:48:40.765Z,9.00
2019-05-28T08:51:10.502Z,7.93
2019-05-28T08:53:39.818Z,8.93
2019-05-28T08:56:09.021Z,7.97
2019-05-28T08:58:38.296Z,8.50
2019-05-28T09:01:07.519Z,7.33
2019-05-28T09:03:36.764Z,7.07
2019-05-28T09:06:06.027Z,7.60
2019-05-28T09:08:39.085Z,7.40
2019-05-28T09:11:06.285Z,7.50
2019-05-28T09:13:35.893Z,7.60
2019-05-28T09:16:05.114Z,7.33
2019-05-28T09:18:34.353Z,7.30
2019-05-28T09:21:03.794Z,8.10
2019-05-28T09:23:34.120Z,9.17
2019-05-28T09:26:03.935Z,8.60
2019-05-28T09:28:33.342Z,7.73
2019-05-28T09:31:02.589Z,8.23
2019-05-28T09:33:32.813Z,7.40
2019-05-28T09:36:08.572Z,8.00
2019-05-28T09:38:33.159Z,8.90
2019-05-28T09:41:05.639Z,8.57
2019-05-28T09:43:34.171Z,8.03
2019-05-28T09:46:03.435Z,8.50
2019-05-28T09:48:33.192Z,8.30
2019-05-28T09:51:02.419Z,8.07
2019-05-28T09:53:34.793Z,7.50
2019-05-28T09:56:03.617Z,7.47
2019-05-28T09:58:33.254Z,8.37
2019-05-28T10:01:02.545Z,7.70
2019-05-28T10:03:32.001Z,7.97
2019-05-28T10:06:15.494Z,7.27
2019-05-28T10:08:32.689Z,7.03
2019-05-28T10:11:01.971Z,6.63
2019-05-28T10:13:39.454Z,7.03
2019-05-28T10:16:02.583Z,8.57
2019-05-28T10:18:32.242Z,9.23
2019-05-28T10:21:16.897Z,7.60
2019-05-28T10:23:32.824Z,8.57
2019-05-28T10:26:02.678Z,10.10
2019-05-28T10:28:32.218Z,11.67
2019-05-28T10:31:01.486Z,12.13
2019-05-28T10:33:30.931Z,12.37
2019-05-28T10:36:00.480Z,9.13
2019-05-28T10:38:30.068Z,10.13
2019-05-28T10:41:00.099Z,8.47
2019-05-28T10:43:30.866Z,8.73
2019-05-28T10:46:00.205Z,7.63
2019-05-28T10:48:29.773Z,7.40
2019-05-28T10:50:58.995Z,8.00
2019-05-28T10:53:29.874Z,7.23
2019-05-28T10:55:59.140Z,7.80
2019-05-28T10:58:29.484Z,6.80
2019-05-28T11:00:58.721Z,6.93
2019-05-28T11:03:28.312Z,7.20
2019-05-28T11:05:57.789Z,6.80
2019-05-28T11:08:26.999Z,6.00
2019-05-28T11:10:56.212Z,7.10
2019-05-28T11:13:25.493Z,5.93
2019-05-28T11:15:55.073Z,5.60
2019-05-28T11:18:24.701Z,4.27
2019-05-28T11:20:54.548Z,4.17
2019-05-28T11:23:24.152Z,4.87
2019-05-28T11:25:53.385Z,3.23
2019-05-28T11:28:22.739Z,3.77
2019-05-28T11:30:52.300Z,4.70
2019-05-28T11:33:22.645Z,4.07
2019-05-28T11:35:52.010Z,5.30
2019-05-28T11:38:21.610Z,4.83
2019-05-28T11:40:51.232Z,4.77
2019-05-28T11:43:20.471Z,4.00
2019-05-28T11:45:49.770Z,4.83
2019-05-28T11:48:18.986Z,4.80
2019-05-28T11:50:50.416Z,4.90
2019-05-28T11:53:19.978Z,4.37
2019-05-28T11:55:49.199Z,4.63
2019-05-28T11:58:18.426Z,4.47
2019-05-28T12:00:47.691Z,4.80
2019-05-28T12:03:17.499Z,4.30
2019-05-28T12:05:46.735Z,4.30
2019-05-28T12:08:17.092Z,4.13
2019-05-28T12:10:46.366Z,4.37
2019-05-28T12:13:15.603Z,3.73
2019-05-28T12:15:44.881Z,4.33
2019-05-28T12:18:14.473Z,4.30
2019-05-28T12:20:43.712Z,4.12
2019-05-28T12:23:12.951Z,4.70
2019-05-28T12:25:42.231Z,3.57
2019-05-28T12:28:11.448Z,4.33
2019-05-28T12:30:41.825Z,4.25
2019-05-28T12:33:11.113Z,4.23
2019-05-28T12:35:42.883Z,4.80
2019-05-28T12:38:11.793Z,5.30
2019-05-28T12:40:47.667Z,4.50
2019-05-28T12:43:12.932Z,4.10
2019-05-28T12:45:42.225Z,4.47
2019-05-28T12:48:13.200Z,5.23
2019-05-28T12:50:42.727Z,4.50
2019-05-28T12:53:12.208Z,4.83
2019-05-28T12:55:41.851Z,4.83
2019-05-28T12:58:11.061Z,5.30
2019-05-28T13:00:40.737Z,4.30
2019-05-28T13:03:10.018Z,5.30
2019-05-28T13:05:39.672Z,5.20
2019-05-28T13:08:10.600Z,5.40
2019-05-28T13:10:40.175Z,5.27
2019-05-28T13:13:09.810Z,4.30
2019-05-28T13:15:42.335Z,5.30
2019-05-28T13:18:10.019Z,4.50
2019-05-28T13:20:39.332Z,5.13
2019-05-28T13:23:09.475Z,5.67
2019-05-28T13:25:38.772Z,5.83
2019-05-28T13:28:07.981Z,4.63
2019-05-28T13:30:37.582Z,6.00
2019-05-28T13:33:06.856Z,5.17
2019-05-28T13:35:36.270Z,3.70
2019-05-28T13:38:05.566Z,5.70
2019-05-28T13:40:34.951Z,4.97
2019-05-28T13:43:04.587Z,5.27
2019-05-28T13:45:33.916Z,5.13
2019-05-28T13:48:03.182Z,5.53
2019-05-28T13:50:32.477Z,6.20
2019-05-28T13:53:02.157Z,6.13
2019-05-28T13:55:31.384Z,5.53
2019-05-28T13:58:00.633Z,5.70
2019-05-28T14:00:30.275Z,6.60
2019-05-28T14:03:00.043Z,6.00
2019-05-28T14:05:29.565Z,5.87
2019-05-28T14:07:58.789Z,5.30
2019-05-28T14:10:28.017Z,5.73
2019-05-28T14:12:57.593Z,6.07
2019-05-28T14:15:26.823Z,6.17
2019-05-28T14:17:56.098Z,5.83
2019-05-28T14:20:25.968Z,6.27
2019-05-28T14:22:55.180Z,6.90
2019-05-28T14:25:24.440Z,6.23
2019-05-28T14:27:56.523Z,8.20
2019-05-28T14:30:26.425Z,6.77
2019-05-28T14:32:55.648Z,6.40
2019-05-28T14:35:25.018Z,6.50
2019-05-28T14:37:54.563Z,6.50
2019-05-28T14:40:25.088Z,5.60
2019-05-28T14:42:54.906Z,4.60
2019-05-28T14:45:25.191Z,4.30
2019-05-28T14:47:55.910Z,4.33
2019-05-28T14:50:25.224Z,4.90
2019-05-28T14:52:54.664Z,3.67
2019-05-28T14:55:23.937Z,13.73
2019-05-28T14:57:53.140Z,3.60
2019-05-28T15:00:22.401Z,3.90
2019-05-28T15:02:52.007Z,3.47
2019-05-28T15:05:21.443Z,3.40
2019-05-28T15:07:50.996Z,3.57
2019-05-28T15:10:22.218Z,3.20
2019-05-28T15:12:51.952Z,2.37
2019-05-28T15:15:35.443Z,2.73
2019-05-28T15:17:52.176Z,3.00
2019-05-28T15:20:21.682Z,2.73
2019-05-28T15:22:51.336Z,3.30
2019-05-28T15:25:21.138Z,3.20
2019-05-28T15:27:50.895Z,3.13
2019-05-28T15:30:20.416Z,3.47
2019-05-28T15:32:51.204Z,2.83
2019-05-28T15:35:20.513Z,9.53
2019-05-28T15:37:49.743Z,2.90
2019-05-28T15:40:19.168Z,2.97
2019-05-28T15:43:04.643Z,2.30
2019-05-28T15:45:20.471Z,2.50
2019-05-28T15:47:50.105Z,2.57
2019-05-28T15:50:19.495Z,2.63
2019-05-28T15:52:49.211Z,2.40
2019-05-28T15:55:18.528Z,2.37
2019-05-28T15:57:47.859Z,2.93
2019-05-28T16:00:20.271Z,2.00
2019-05-28T16:02:49.880Z,2.13
2019-05-28T16:05:19.284Z,3.20
2019-05-28T16:07:48.880Z,1.63
2019-05-28T16:10:18.746Z,1.30
2019-05-28T16:12:48.676Z,1.67
2019-05-28T16:15:18.624Z,2.40
2019-05-28T16:17:47.902Z,1.80
2019-05-28T16:20:18.617Z,2.00
2019-05-28T16:22:47.868Z,1.70
2019-05-28T16:25:17.974Z,2.10
2019-05-28T16:27:47.188Z,2.00
2019-05-28T16:30:17.689Z,2.00
2019-05-28T16:32:47.323Z,1.70
2019-05-28T16:35:19.815Z,1.82
2019-05-28T16:37:49.452Z,2.33
2019-05-28T16:40:19.287Z,1.60
2019-05-28T16:42:48.575Z,1.13
2019-05-28T16:45:19.543Z,1.73
2019-05-28T16:47:48.782Z,6.20
2019-05-28T16:50:19.418Z,1.27
2019-05-28T16:52:48.993Z,1.30
2019-05-28T16:55:18.316Z,2.23
2019-05-28T16:57:47.591Z,1.60
2019-05-28T17:00:17.340Z,1.40
2019-05-28T17:02:46.672Z,1.00
2019-05-28T17:05:16.726Z,1.50
2019-05-28T17:07:45.972Z,1.50
2019-05-28T17:10:31.759Z,1.50
2019-05-28T17:12:47.520Z,1.63
2019-05-28T17:15:17.902Z,0.97
2019-05-28T17:17:47.512Z,1.40
2019-05-28T17:20:17.128Z,1.20
2019-05-28T17:22:46.366Z,1.40
2019-05-28T17:25:15.801Z,1.77
2019-05-28T17:27:45.336Z,1.63
2019-05-28T17:30:20.691Z,1.67
2019-05-28T17:32:47.968Z,1.53
2019-05-28T17:35:17.342Z,1.20
2019-05-28T17:37:47.321Z,2.10
2019-05-28T17:40:21.693Z,1.57
2019-05-28T17:42:48.418Z,1.33
2019-05-28T17:45:18.201Z,1.10
2019-05-28T17:47:47.530Z,1.20
2019-05-28T17:50:17.887Z,1.30
2019-05-28T17:52:51.337Z,1.33
2019-05-28T17:55:18.649Z,1.17
2019-05-28T17:57:48.242Z,1.20
2019-05-28T18:00:17.820Z,0.90
2019-05-28T18:02:48.626Z,1.27
2019-05-28T18:05:20.062Z,0.80
2019-05-28T18:07:49.966Z,1.03
2019-05-28T18:10:20.439Z,1.20
2019-05-28T18:12:49.674Z,1.40
2019-05-28T18:15:19.239Z,1.00
2019-05-28T18:17:48.840Z,0.93
2019-05-28T18:20:19.289Z,1.10
2019-05-28T18:22:48.559Z,1.10
2019-05-28T18:25:20.103Z,1.40
2019-05-28T18:27:48.884Z,1.00
2019-05-28T18:30:20.842Z,1.47
2019-05-28T18:32:50.108Z,1.37
2019-05-28T18:35:19.740Z,1.47
2019-05-28T18:37:49.005Z,1.50
2019-05-28T18:40:18.485Z,1.10
2019-05-28T18:42:49.043Z,1.43
2019-05-28T18:45:18.823Z,2.10
2019-05-28T18:47:48.271Z,1.40
2019-05-28T18:50:18.425Z,1.27
2019-05-28T18:52:47.849Z,1.10
2019-05-28T18:55:17.201Z,1.47
2019-05-28T18:57:50.382Z,1.17
2019-05-28T19:00:17.959Z,1.10
2019-05-28T19:02:47.531Z,1.10
2019-05-28T19:05:17.223Z,1.27
2019-05-28T19:07:46.611Z,1.33
2019-05-28T19:10:16.358Z,1.50
2019-05-28T19:12:45.848Z,1.33
2019-05-28T19:15:15.242Z,1.40
2019-05-28T19:17:44.857Z,1.20
2019-05-28T19:20:14.645Z,1.10
2019-05-28T19:22:43.929Z,1.20
2019-05-28T19:25:14.781Z,1.30
2019-05-28T19:27:44.408Z,1.47
2019-05-28T19:30:17.400Z,1.10
2019-05-28T19:32:46.678Z,1.70
2019-05-28T19:35:16.274Z,1.80
2019-05-28T19:37:46.053Z,4.07
2019-05-28T19:40:19.932Z,1.50
2019-05-28T19:42:49.746Z,1.10
2019-05-28T19:45:19.027Z,1.87
2019-05-28T19:47:48.290Z,1.90
2019-05-28T19:50:17.692Z,1.40
2019-05-28T19:52:46.909Z,1.10
2019-05-28T19:55:17.934Z,1.47
2019-05-28T19:57:47.624Z,1.07
2019-05-28T20:00:17.565Z,1.70
2019-05-28T20:02:46.811Z,1.60
2019-05-28T20:05:16.628Z,1.60
2019-05-28T20:07:46.010Z,1.50
2019-05-28T20:10:15.247Z,1.30
2019-05-28T20:12:44.483Z,1.80
2019-05-28T20:15:16.006Z,1.50
2019-05-28T20:17:46.277Z,1.57
2019-05-28T20:20:17.064Z,1.63
2019-05-28T20:22:46.348Z,2.03
2019-05-28T20:25:16.043Z,1.87
2019-05-28T20:27:47.573Z,2.40
2019-05-28T20:30:16.996Z,1.77
2019-05-28T20:32:46.300Z,1.33
2019-05-28T20:35:16.044Z,1.40
2019-05-28T20:37:45.641Z,1.33
2019-05-28T20:40:15.469Z,1.40
2019-05-28T20:42:44.736Z,1.53
2019-05-28T20:45:14.156Z,1.90
2019-05-28T20:47:43.680Z,1.70
2019-05-28T20:50:14.434Z,1.40
2019-05-28T20:52:43.667Z,1.47
2019-05-28T20:55:12.945Z,1.60
2019-05-28T20:57:42.511Z,1.50
2019-05-28T21:00:12.632Z,2.37
2019-05-28T21:02:42.444Z,2.20
2019-05-28T21:05:12.346Z,1.93
2019-05-28T21:07:42.506Z,1.60
2019-05-28T21:10:12.069Z,2.10
2019-05-28T21:12:44.531Z,2.03
2019-05-28T21:15:16.117Z,2.40
2019-05-28T21:17:45.925Z,2.10
2019-05-28T21:20:15.651Z,2.10
2019-05-28T21:22:45.258Z,2.30
2019-05-28T21:25:14.505Z,3.67
2019-05-28T21:27:44.066Z,2.33
2019-05-28T21:30:13.491Z,1.97
2019-05-28T21:32:42.967Z,2.03
2019-05-28T21:35:12.427Z,2.67
2019-05-28T21:37:41.999Z,2.57
2019-05-28T21:40:11.585Z,3.30
2019-05-28T21:42:41.131Z,2.53
2019-05-28T21:45:10.798Z,2.77
2019-05-28T21:47:41.067Z,2.17
2019-05-28T21:50:10.954Z,2.13
2019-05-28T21:52:40.972Z,2.37
2019-05-28T21:55:10.199Z,2.77
2019-05-28T21:57:39.387Z,2.10
2019-05-28T22:00:16.593Z,2.75
2019-05-28T22:02:46.071Z,2.50
2019-05-28T22:05:15.373Z,2.70
2019-05-28T22:07:44.564Z,2.23
2019-05-28T22:10:14.260Z,2.60
2019-05-28T22:12:44.019Z,2.87
2019-05-28T22:15:13.439Z,3.17
2019-05-28T22:17:44.017Z,1.87
2019-05-28T22:20:13.243Z,3.10
2019-05-28T22:22:42.818Z,2.93
2019-05-28T22:25:12.002Z,2.83
2019-05-28T22:27:41.250Z,3.13
2019-05-28T22:30:11.956Z,2.60
2019-05-28T22:32:41.128Z,2.60
2019-05-28T22:35:10.848Z,2.70
2019-05-28T22:37:40.066Z,2.50
2019-05-28T22:40:09.883Z,2.50
2019-05-28T22:42:39.339Z,3.33
2019-05-28T22:45:08.866Z,2.80
2019-05-28T22:47:38.040Z,3.00
2019-05-28T22:50:19.535Z,2.90
2019-05-28T22:52:39.033Z,2.93
2019-05-28T22:55:09.477Z,3.30
2019-05-28T22:57:38.640Z,3.50
2019-05-28T23:00:09.007Z,2.80
2019-05-28T23:02:38.532Z,2.83
2019-05-28T23:05:09.313Z,3.00
2019-05-28T23:07:38.541Z,2.90
2019-05-28T23:10:09.860Z,2.83
2019-05-28T23:12:39.196Z,3.00
2019-05-28T23:15:10.326Z,2.98
2019-05-28T23:17:39.859Z,2.80
2019-05-28T23:20:11.182Z,3.43
2019-05-28T23:22:41.063Z,3.53
2019-05-28T23:25:11.688Z,3.50
2019-05-28T23:27:41.237Z,3.80
2019-05-28T23:30:23.329Z,3.63
2019-05-28T23:32:44.680Z,3.83
2019-05-28T23:35:13.966Z,3.37
2019-05-28T23:37:43.186Z,3.40
2019-05-28T23:40:14.475Z,3.53
2019-05-28T23:42:44.007Z,3.90
2019-05-28T23:45:13.953Z,3.83
2019-05-28T23:47:43.571Z,4.20
2019-05-28T23:50:17.545Z,4.13
2019-05-28T23:52:44.772Z,3.70
2019-05-28T23:55:14.047Z,3.70
2019-05-28T23:57:43.823Z,4.00
